sensor_id;sensor_type;location;lat;lon;timestamp;pressure;altitude;pressure_sealevel;temperature;humidity
73518;BME280;61766;60.318;25.044;2022-09-09T00:01:56;102506.92;;;8.80;32.89
73518;BME280;61766;60.318;25.044;2022-09-09T00:04:21;102506.37;;;9.23;32.71
73518;BME280;61766;60.318;25.044;2022-09-09T00:06:50;102509.99;;;8.75;32.89
73518;BME280;61766;60.318;25.044;2022-09-09T00:09:11;102510.17;;;8.77;32.81
73518;BME280;61766;60.318;25.044;2022-09-09T00:11:39;102509.13;;;8.89;33.09
73518;BME280;61766;60.318;25.044;2022-09-09T00:14:00;102509.45;;;9.08;33.16
73518;BME280;61766;60.318;25.044;2022-09-09T00:16:24;102511.10;;;8.86;33.14
73518;BME280;61766;60.318;25.044;2022-09-09T00:18:56;102508.63;;;9.07;33.30
73518;BME280;61766;60.318;25.044;2022-09-09T00:21:16;102508.96;;;8.59;33.34
73518;BME280;61766;60.318;25.044;2022-09-09T00:23:43;102511.29;;;8.59;33.41
73518;BME280;61766;60.318;25.044;2022-09-09T00:26:09;102511.84;;;8.65;33.40
73518;BME280;61766;60.318;25.044;2022-09-09T00:28:30;102512.55;;;9.14;33.60
73518;BME280;61766;60.318;25.044;2022-09-09T00:30:54;102509.36;;;8.95;33.66
73518;BME280;61766;60.318;25.044;2022-09-09T00:33:22;102511.06;;;9.24;33.58
73518;BME280;61766;60.318;25.044;2022-09-09T00:35:48;102512.93;;;8.82;33.49
73518;BME280;61766;60.318;25.044;2022-09-09T00:38:15;102512.55;;;8.89;33.94
73518;BME280;61766;60.318;25.044;2022-09-09T00:40:37;102510.22;;;8.92;34.46
73518;BME280;61766;60.318;25.044;2022-09-09T00:43:18;102507.45;;;8.96;34.51
73518;BME280;61766;60.318;25.044;2022-09-09T00:45:43;102507.19;;;9.01;34.25
73518;BME280;61766;60.318;25.044;2022-09-09T00:47:53;102509.00;;;9.06;34.20
73518;BME280;61766;60.318;25.044;2022-09-09T00:50:29;102505.00;;;9.15;34.46
73518;BME280;61766;60.318;25.044;2022-09-09T00:52:46;102504.27;;;9.18;34.25
73518;BME280;61766;60.318;25.044;2022-09-09T00:55:11;102502.64;;;9.23;34.32
73518;BME280;61766;60.318;25.044;2022-09-09T00:57:33;102499.96;;;9.26;34.92
73518;BME280;61766;60.318;25.044;2022-09-09T01:02:29;102495.90;;;9.37;34.91
73518;BME280;61766;60.318;25.044;2022-09-09T01:04:47;102495.94;;;9.44;34.78
73518;BME280;61766;60.318;25.044;2022-09-09T01:07:18;102498.27;;;9.50;35.50
73518;BME280;61766;60.318;25.044;2022-09-09T01:09:43;102497.36;;;9.38;35.34
73518;BME280;61766;60.318;25.044;2022-09-09T01:12:09;102497.91;;;9.25;35.17
73518;BME280;61766;60.318;25.044;2022-09-09T01:14:38;102502.73;;;9.11;35.04
73518;BME280;61766;60.318;25.044;2022-09-09T01:16:56;102505.92;;;9.12;35.53
73518;BME280;61766;60.318;25.044;2022-09-09T01:19:24;102507.68;;;9.16;35.06
73518;BME280;61766;60.318;25.044;2022-09-09T01:21:48;102507.16;;;9.17;34.78
73518;BME280;61766;60.318;25.044;2022-09-09T01:24:20;102505.99;;;9.20;34.54
73518;BME280;61766;60.318;25.044;2022-09-09T01:26:35;102504.97;;;9.20;34.55
73518;BME280;61766;60.318;25.044;2022-09-09T01:28:59;102503.89;;;9.18;34.54
73518;BME280;61766;60.318;25.044;2022-09-09T01:31:31;102503.97;;;9.12;34.75
73518;BME280;61766;60.318;25.044;2022-09-09T01:33:50;102501.67;;;9.18;34.54
73518;BME280;61766;60.318;25.044;2022-09-09T01:36:19;102502.28;;;9.13;34.77
73518;BME280;61766;60.318;25.044;2022-09-09T01:38:40;102497.62;;;9.15;35.09
73518;BME280;61766;60.318;25.044;2022-09-09T01:41:05;102495.10;;;9.21;35.23
73518;BME280;61766;60.318;25.044;2022-09-09T01:43:31;102494.59;;;9.20;35.31
73518;BME280;61766;60.318;25.044;2022-09-09T01:45:58;102490.18;;;9.20;35.59
73518;BME280;61766;60.318;25.044;2022-09-09T01:48:21;102491.37;;;9.24;35.52
73518;BME280;61766;60.318;25.044;2022-09-09T01:50:45;102490.15;;;9.29;35.44
73518;BME280;61766;60.318;25.044;2022-09-09T01:53:11;102493.06;;;9.39;35.49
73518;BME280;61766;60.318;25.044;2022-09-09T01:55:40;102492.40;;;9.48;35.48
73518;BME280;61766;60.318;25.044;2022-09-09T01:58:13;102493.07;;;9.54;35.48
73518;BME280;61766;60.318;25.044;2022-09-09T02:00:26;102493.06;;;9.60;35.48
73518;BME280;61766;60.318;25.044;2022-09-09T02:02:57;102493.02;;;9.71;35.40
73518;BME280;61766;60.318;25.044;2022-09-09T02:05:26;102495.79;;;9.75;35.33
73518;BME280;61766;60.318;25.044;2022-09-09T02:07:45;102501.18;;;9.84;35.44
73518;BME280;61766;60.318;25.044;2022-09-09T02:10:16;102504.08;;;9.86;35.45
73518;BME280;61766;60.318;25.044;2022-09-09T02:12:33;102503.76;;;9.70;35.47
73518;BME280;61766;60.318;25.044;2022-09-09T02:15:02;102502.18;;;9.75;35.84
73518;BME280;61766;60.318;25.044;2022-09-09T02:17:27;102501.67;;;10.09;35.49
73518;BME280;61766;60.318;25.044;2022-09-09T02:19:50;102501.48;;;9.92;35.47
73518;BME280;61766;60.318;25.044;2022-09-09T02:22:13;102500.73;;;10.04;35.28
73518;BME280;61766;60.318;25.044;2022-09-09T02:24:39;102500.50;;;10.35;35.32
73518;BME280;61766;60.318;25.044;2022-09-09T02:27:06;102499.45;;;10.09;35.55
73518;BME280;61766;60.318;25.044;2022-09-09T02:29:31;102497.22;;;10.41;35.48
73518;BME280;61766;60.318;25.044;2022-09-09T02:31:54;102496.93;;;10.25;35.27
73518;BME280;61766;60.318;25.044;2022-09-09T02:34:21;102498.50;;;10.32;35.72
73518;BME280;61766;60.318;25.044;2022-09-09T02:36:46;102497.47;;;10.38;35.15
73518;BME280;61766;60.318;25.044;2022-09-09T02:39:10;102494.08;;;10.21;35.37
73518;BME280;61766;60.318;25.044;2022-09-09T02:41:36;102492.69;;;10.27;35.51
73518;BME280;61766;60.318;25.044;2022-09-09T02:43:59;102490.65;;;10.36;35.77
73518;BME280;61766;60.318;25.044;2022-09-09T02:46:35;102486.97;;;10.43;35.84
73518;BME280;61766;60.318;25.044;2022-09-09T02:48:57;102486.00;;;10.69;35.49
73518;BME280;61766;60.318;25.044;2022-09-09T02:51:22;102486.80;;;10.68;35.39
73518;BME280;61766;60.318;25.044;2022-09-09T02:53:43;102483.71;;;10.69;35.86
73518;BME280;61766;60.318;25.044;2022-09-09T02:56:09;102486.35;;;10.50;35.73
73518;BME280;61766;60.318;25.044;2022-09-09T02:58:30;102485.62;;;10.53;35.78
73518;BME280;61766;60.318;25.044;2022-09-09T03:00:55;102487.51;;;10.50;36.03
73518;BME280;61766;60.318;25.044;2022-09-09T03:03:21;102486.23;;;10.54;35.84
73518;BME280;61766;60.318;25.044;2022-09-09T03:05:46;102486.14;;;10.55;35.57
73518;BME280;61766;60.318;25.044;2022-09-09T03:08:11;102487.32;;;10.80;35.50
73518;BME280;61766;60.318;25.044;2022-09-09T03:10:36;102484.12;;;10.29;35.65
73518;BME280;61766;60.318;25.044;2022-09-09T03:13:01;102486.39;;;10.54;35.57
73518;BME280;61766;60.318;25.044;2022-09-09T03:15:26;102487.16;;;10.50;35.62
73518;BME280;61766;60.318;25.044;2022-09-09T03:17:51;102485.19;;;10.52;35.70
73518;BME280;61766;60.318;25.044;2022-09-09T03:20:16;102482.57;;;10.46;35.72
73518;BME280;61766;60.318;25.044;2022-09-09T03:22:42;102478.96;;;10.47;35.60
73518;BME280;61766;60.318;25.044;2022-09-09T03:25:07;102479.69;;;10.69;35.57
73518;BME280;61766;60.318;25.044;2022-09-09T03:27:32;102481.71;;;10.67;35.61
73518;BME280;61766;60.318;25.044;2022-09-09T03:29:57;102477.17;;;10.40;35.46
73518;BME280;61766;60.318;25.044;2022-09-09T03:32:22;102476.34;;;10.62;35.21
73518;BME280;61766;60.318;25.044;2022-09-09T03:34:47;102478.61;;;10.57;35.27
73518;BME280;61766;60.318;25.044;2022-09-09T03:37:13;102480.03;;;10.30;35.12
73518;BME280;61766;60.318;25.044;2022-09-09T03:39:38;102480.29;;;10.50;34.96
73518;BME280;61766;60.318;25.044;2022-09-09T03:42:03;102477.31;;;10.73;34.78
73518;BME280;61766;60.318;25.044;2022-09-09T03:44:28;102479.39;;;10.42;34.92
73518;BME280;61766;60.318;25.044;2022-09-09T03:46:53;102479.58;;;10.60;34.94
73518;BME280;61766;60.318;25.044;2022-09-09T03:49:18;102475.45;;;10.14;34.33
73518;BME280;61766;60.318;25.044;2022-09-09T03:51:43;102470.26;;;10.09;34.64
73518;BME280;61766;60.318;25.044;2022-09-09T03:54:09;102471.38;;;10.14;34.63
73518;BME280;61766;60.318;25.044;2022-09-09T03:56:34;102473.64;;;10.30;34.63
73518;BME280;61766;60.318;25.044;2022-09-09T03:58:59;102477.86;;;10.00;34.66
73518;BME280;61766;60.318;25.044;2022-09-09T04:01:25;102478.89;;;10.12;34.65
73518;BME280;61766;60.318;25.044;2022-09-09T04:03:50;102477.76;;;10.16;34.57
73518;BME280;61766;60.318;25.044;2022-09-09T04:06:16;102474.25;;;9.84;34.77
73518;BME280;61766;60.318;25.044;2022-09-09T04:08:40;102475.33;;;9.61;34.51
73518;BME280;61766;60.318;25.044;2022-09-09T04:11:06;102477.77;;;10.00;34.80
73518;BME280;61766;60.318;25.044;2022-09-09T04:13:31;102478.12;;;9.95;34.92
73518;BME280;61766;60.318;25.044;2022-09-09T04:15:57;102476.43;;;9.94;34.77
73518;BME280;61766;60.318;25.044;2022-09-09T04:18:22;102475.18;;;9.77;34.73
73518;BME280;61766;60.318;25.044;2022-09-09T04:20:49;102474.40;;;9.81;34.58
73518;BME280;61766;60.318;25.044;2022-09-09T04:23:12;102472.81;;;9.82;34.71
73518;BME280;61766;60.318;25.044;2022-09-09T04:25:37;102474.24;;;9.77;34.99
73518;BME280;61766;60.318;25.044;2022-09-09T04:28:03;102474.60;;;10.07;34.59
73518;BME280;61766;60.318;25.044;2022-09-09T04:30:28;102479.00;;;10.12;34.28
73518;BME280;61766;60.318;25.044;2022-09-09T04:32:53;102477.16;;;10.08;34.06
73518;BME280;61766;60.318;25.044;2022-09-09T04:35:18;102477.45;;;9.90;34.31
73518;BME280;61766;60.318;25.044;2022-09-09T04:37:43;102475.28;;;10.14;34.26
73518;BME280;61766;60.318;25.044;2022-09-09T04:40:09;102475.34;;;10.18;34.42
73518;BME280;61766;60.318;25.044;2022-09-09T04:42:38;102472.88;;;10.00;34.45
73518;BME280;61766;60.318;25.044;2022-09-09T04:44:59;102473.43;;;10.28;34.50
73518;BME280;61766;60.318;25.044;2022-09-09T04:47:24;102474.39;;;10.35;34.58
73518;BME280;61766;60.318;25.044;2022-09-09T04:49:49;102476.61;;;10.16;34.66
73518;BME280;61766;60.318;25.044;2022-09-09T04:52:15;102479.78;;;10.31;34.80
73518;BME280;61766;60.318;25.044;2022-09-09T04:54:40;102476.63;;;10.72;34.85
73518;BME280;61766;60.318;25.044;2022-09-09T04:57:05;102476.12;;;10.67;34.52
73518;BME280;61766;60.318;25.044;2022-09-09T04:59:30;102471.29;;;10.90;35.04
73518;BME280;61766;60.318;25.044;2022-09-09T05:01:56;102469.74;;;10.67;35.02
73518;BME280;61766;60.318;25.044;2022-09-09T05:04:21;102471.59;;;10.54;34.97
73518;BME280;61766;60.318;25.044;2022-09-09T05:06:47;102474.39;;;10.93;35.01
73518;BME280;61766;60.318;25.044;2022-09-09T05:09:12;102469.47;;;11.04;35.09
73518;BME280;61766;60.318;25.044;2022-09-09T05:11:38;102465.52;;;11.03;34.93
73518;BME280;61766;60.318;25.044;2022-09-09T05:14:03;102461.00;;;11.05;35.22
73518;BME280;61766;60.318;25.044;2022-09-09T05:16:28;102459.98;;;11.19;35.21
73518;BME280;61766;60.318;25.044;2022-09-09T05:18:54;102461.50;;;11.65;35.24
73518;BME280;61766;60.318;25.044;2022-09-09T05:21:23;102462.74;;;11.81;35.40
73518;BME280;61766;60.318;25.044;2022-09-09T05:23:45;102461.50;;;12.03;35.16
73518;BME280;61766;60.318;25.044;2022-09-09T05:26:17;102462.77;;;11.86;35.29
73518;BME280;61766;60.318;25.044;2022-09-09T05:28:37;102460.73;;;12.07;34.95
73518;BME280;61766;60.318;25.044;2022-09-09T05:31:02;102459.57;;;12.22;35.15
73518;BME280;61766;60.318;25.044;2022-09-09T05:33:26;102458.04;;;12.46;35.22
73518;BME280;61766;60.318;25.044;2022-09-09T05:35:56;102458.35;;;12.71;35.03
73518;BME280;61766;60.318;25.044;2022-09-09T05:38:18;102455.44;;;12.90;35.10
73518;BME280;61766;60.318;25.044;2022-09-09T05:43:08;102455.61;;;13.35;34.82
73518;BME280;61766;60.318;25.044;2022-09-09T05:45:31;102459.20;;;13.38;34.79
73518;BME280;61766;60.318;25.044;2022-09-09T05:47:56;102457.27;;;13.61;34.29
73518;BME280;61766;60.318;25.044;2022-09-09T05:50:22;102457.07;;;13.63;34.34
73518;BME280;61766;60.318;25.044;2022-09-09T05:52:47;102461.92;;;13.93;34.22
73518;BME280;61766;60.318;25.044;2022-09-09T05:55:12;102465.99;;;14.38;34.19
73518;BME280;61766;60.318;25.044;2022-09-09T05:57:38;102465.20;;;14.25;34.13
73518;BME280;61766;60.318;25.044;2022-09-09T06:00:04;102466.68;;;14.96;33.51
73518;BME280;61766;60.318;25.044;2022-09-09T06:02:31;102466.06;;;14.81;33.01
73518;BME280;61766;60.318;25.044;2022-09-09T06:04:54;102465.39;;;14.81;33.49
73518;BME280;61766;60.318;25.044;2022-09-09T06:07:19;102459.29;;;15.40;32.78
73518;BME280;61766;60.318;25.044;2022-09-09T06:09:44;102458.31;;;15.49;32.82
73518;BME280;61766;60.318;25.044;2022-09-09T06:12:11;102461.36;;;15.85;32.25
73518;BME280;61766;60.318;25.044;2022-09-09T06:14:35;102459.46;;;15.80;31.95
73518;BME280;61766;60.318;25.044;2022-09-09T06:17:02;102455.95;;;16.15;31.47
73518;BME280;61766;60.318;25.044;2022-09-09T06:19:26;102450.47;;;16.71;31.03
73518;BME280;61766;60.318;25.044;2022-09-09T06:21:51;102451.47;;;16.61;30.64
73518;BME280;61766;60.318;25.044;2022-09-09T06:24:17;102455.99;;;16.17;30.43
73518;BME280;61766;60.318;25.044;2022-09-09T06:26:43;102457.66;;;16.49;29.95
73518;BME280;61766;60.318;25.044;2022-09-09T06:29:09;102457.43;;;16.12;30.88
73518;BME280;61766;60.318;25.044;2022-09-09T06:31:36;102459.19;;;16.49;30.43
73518;BME280;61766;60.318;25.044;2022-09-09T06:34:02;102459.53;;;16.68;29.97
73518;BME280;61766;60.318;25.044;2022-09-09T06:36:28;102464.36;;;16.86;29.77
73518;BME280;61766;60.318;25.044;2022-09-09T06:38:53;102467.57;;;16.54;29.48
73518;BME280;61766;60.318;25.044;2022-09-09T06:41:20;102462.14;;;16.16;30.24
73518;BME280;61766;60.318;25.044;2022-09-09T06:43:44;102463.50;;;16.27;30.30
73518;BME280;61766;60.318;25.044;2022-09-09T06:46:12;102464.70;;;16.38;30.03
73518;BME280;61766;60.318;25.044;2022-09-09T06:48:35;102458.32;;;16.47;30.06
73518;BME280;61766;60.318;25.044;2022-09-09T06:51:06;102461.54;;;16.97;29.11
73518;BME280;61766;60.318;25.044;2022-09-09T06:53:27;102460.45;;;16.32;29.96
73518;BME280;61766;60.318;25.044;2022-09-09T06:55:53;102457.36;;;16.42;30.07
73518;BME280;61766;60.318;25.044;2022-09-09T06:58:19;102463.09;;;16.75;29.59
73518;BME280;61766;60.318;25.044;2022-09-09T07:00:44;102464.62;;;16.65;29.37
73518;BME280;61766;60.318;25.044;2022-09-09T07:03:11;102468.80;;;16.82;28.59
73518;BME280;61766;60.318;25.044;2022-09-09T07:05:36;102469.37;;;17.82;27.66
73518;BME280;61766;60.318;25.044;2022-09-09T07:08:02;102471.93;;;17.48;27.38
73518;BME280;61766;60.318;25.044;2022-09-09T07:10:28;102478.68;;;17.37;27.97
73518;BME280;61766;60.318;25.044;2022-09-09T07:12:54;102475.50;;;17.36;27.61
73518;BME280;61766;60.318;25.044;2022-09-09T07:15:19;102475.11;;;16.84;28.47
73518;BME280;61766;60.318;25.044;2022-09-09T07:17:45;102475.14;;;17.11;28.08
73518;BME280;61766;60.318;25.044;2022-09-09T07:20:11;102472.40;;;17.83;27.53
73518;BME280;61766;60.318;25.044;2022-09-09T07:22:37;102470.66;;;18.18;26.90
73518;BME280;61766;60.318;25.044;2022-09-09T07:25:03;102473.43;;;18.22;27.17
73518;BME280;61766;60.318;25.044;2022-09-09T07:27:29;102474.57;;;18.73;24.74
73518;BME280;61766;60.318;25.044;2022-09-09T07:29:54;102470.03;;;17.69;24.82
73518;BME280;61766;60.318;25.044;2022-09-09T07:32:20;102472.34;;;16.91;25.18
73518;BME280;61766;60.318;25.044;2022-09-09T07:34:46;102472.43;;;17.66;25.30
73518;BME280;61766;60.318;25.044;2022-09-09T07:37:11;102479.59;;;17.12;25.56
73518;BME280;61766;60.318;25.044;2022-09-09T07:39:37;102474.87;;;18.00;25.33
73518;BME280;61766;60.318;25.044;2022-09-09T07:42:03;102475.52;;;17.87;26.03
73518;BME280;61766;60.318;25.044;2022-09-09T07:44:29;102465.19;;;18.17;25.19
73518;BME280;61766;60.318;25.044;2022-09-09T07:46:55;102470.53;;;18.17;25.42
73518;BME280;61766;60.318;25.044;2022-09-09T07:49:21;102475.04;;;16.04;27.12
73518;BME280;61766;60.318;25.044;2022-09-09T07:51:47;102475.66;;;16.16;26.91
73518;BME280;61766;60.318;25.044;2022-09-09T07:54:14;102475.37;;;16.72;26.96
73518;BME280;61766;60.318;25.044;2022-09-09T07:56:38;102476.43;;;16.62;27.06
73518;BME280;61766;60.318;25.044;2022-09-09T07:59:03;102481.24;;;17.31;26.35
73518;BME280;61766;60.318;25.044;2022-09-09T08:01:31;102475.67;;;18.08;25.69
73518;BME280;61766;60.318;25.044;2022-09-09T08:03:58;102472.61;;;18.27;25.39
73518;BME280;61766;60.318;25.044;2022-09-09T08:06:22;102484.04;;;18.11;25.45
73518;BME280;61766;60.318;25.044;2022-09-09T08:08:50;102488.53;;;16.87;26.84
73518;BME280;61766;60.318;25.044;2022-09-09T08:11:14;102485.65;;;16.96;27.28
73518;BME280;61766;60.318;25.044;2022-09-09T08:13:39;102492.99;;;16.75;27.50
73518;BME280;61766;60.318;25.044;2022-09-09T08:16:10;102492.59;;;17.02;27.04
73518;BME280;61766;60.318;25.044;2022-09-09T08:18:30;102491.61;;;17.94;26.14
73518;BME280;61766;60.318;25.044;2022-09-09T08:20:56;102490.17;;;17.29;26.75
73518;BME280;61766;60.318;25.044;2022-09-09T08:23:21;102486.99;;;17.85;25.90
73518;BME280;61766;60.318;25.044;2022-09-09T08:25:47;102492.48;;;18.67;25.53
73518;BME280;61766;60.318;25.044;2022-09-09T08:28:13;102489.56;;;17.87;25.41
73518;BME280;61766;60.318;25.044;2022-09-09T08:30:39;102484.55;;;18.37;25.50
73518;BME280;61766;60.318;25.044;2022-09-09T08:33:05;102489.19;;;18.88;24.65
73518;BME280;61766;60.318;25.044;2022-09-09T08:35:31;102495.35;;;19.29;24.46
73518;BME280;61766;60.318;25.044;2022-09-09T08:37:57;102489.96;;;19.48;24.27
73518;BME280;61766;60.318;25.044;2022-09-09T08:40:26;102491.83;;;19.37;24.10
73518;BME280;61766;60.318;25.044;2022-09-09T08:42:52;102490.61;;;19.36;24.12
73518;BME280;61766;60.318;25.044;2022-09-09T08:45:24;102487.69;;;20.03;23.62
73518;BME280;61766;60.318;25.044;2022-09-09T08:47:48;102486.82;;;19.85;23.24
73518;BME280;61766;60.318;25.044;2022-09-09T08:50:13;102488.65;;;20.43;23.47
73518;BME280;61766;60.318;25.044;2022-09-09T08:52:44;102486.51;;;19.89;23.43
73518;BME280;61766;60.318;25.044;2022-09-09T08:55:01;102489.43;;;19.18;24.57
73518;BME280;61766;60.318;25.044;2022-09-09T08:57:25;102493.99;;;19.29;24.98
73518;BME280;61766;60.318;25.044;2022-09-09T08:59:49;102492.39;;;19.27;24.99
73518;BME280;61766;60.318;25.044;2022-09-09T09:02:21;102491.81;;;18.55;25.50
73518;BME280;61766;60.318;25.044;2022-09-09T09:04:49;102492.19;;;17.12;26.98
73518;BME280;61766;60.318;25.044;2022-09-09T09:07:15;102488.50;;;18.38;26.03
73518;BME280;61766;60.318;25.044;2022-09-09T09:09:36;102494.00;;;18.46;25.99
73518;BME280;61766;60.318;25.044;2022-09-09T09:11:58;102493.94;;;19.25;25.90
73518;BME280;61766;60.318;25.044;2022-09-09T09:14:25;102489.19;;;18.86;26.32
73518;BME280;61766;60.318;25.044;2022-09-09T09:16:54;102494.84;;;19.00;26.01
73518;BME280;61766;60.318;25.044;2022-09-09T09:19:16;102493.86;;;19.75;25.74
73518;BME280;61766;60.318;25.044;2022-09-09T09:21:44;102500.22;;;19.07;25.39
73518;BME280;61766;60.318;25.044;2022-09-09T09:24:11;102499.38;;;19.19;24.92
73518;BME280;61766;60.318;25.044;2022-09-09T09:26:34;102499.84;;;19.26;25.18
73518;BME280;61766;60.318;25.044;2022-09-09T09:28:59;102496.51;;;18.98;25.03
73518;BME280;61766;60.318;25.044;2022-09-09T09:31:23;102490.19;;;19.93;23.72
73518;BME280;61766;60.318;25.044;2022-09-09T09:33:51;102492.49;;;19.90;23.99
73518;BME280;61766;60.318;25.044;2022-09-09T09:36:14;102493.10;;;19.63;23.98
73518;BME280;61766;60.318;25.044;2022-09-09T09:38:50;102490.97;;;19.76;23.47
73518;BME280;61766;60.318;25.044;2022-09-09T09:41:05;102486.09;;;21.18;22.71
73518;BME280;61766;60.318;25.044;2022-09-09T09:43:33;102488.77;;;22.00;22.22
73518;BME280;61766;60.318;25.044;2022-09-09T09:45:57;102483.46;;;21.44;21.67
73518;BME280;61766;60.318;25.044;2022-09-09T09:48:23;102481.29;;;21.70;21.46
73518;BME280;61766;60.318;25.044;2022-09-09T09:50:51;102480.20;;;21.23;21.75
73518;BME280;61766;60.318;25.044;2022-09-09T09:53:23;102479.39;;;20.53;22.22
73518;BME280;61766;60.318;25.044;2022-09-09T09:55:46;102479.59;;;21.40;21.73
73518;BME280;61766;60.318;25.044;2022-09-09T09:58:14;102480.46;;;21.07;21.42
73518;BME280;61766;60.318;25.044;2022-09-09T10:00:32;102471.66;;;21.00;21.40
73518;BME280;61766;60.318;25.044;2022-09-09T10:02:58;102469.14;;;20.32;21.88
73518;BME280;61766;60.318;25.044;2022-09-09T10:05:26;102473.82;;;20.08;22.17
73518;BME280;61766;60.318;25.044;2022-09-09T10:10:19;102471.85;;;21.36;20.92
73518;BME280;61766;60.318;25.044;2022-09-09T10:12:47;102465.43;;;21.57;20.73
73518;BME280;61766;60.318;25.044;2022-09-09T10:15:13;102465.65;;;21.43;20.99
73518;BME280;61766;60.318;25.044;2022-09-09T10:17:36;102471.65;;;20.85;21.52
73518;BME280;61766;60.318;25.044;2022-09-09T10:22:28;102478.37;;;19.93;23.89
73518;BME280;61766;60.318;25.044;2022-09-09T10:27:20;102473.43;;;19.58;24.30
73518;BME280;61766;60.318;25.044;2022-09-09T10:29:51;102474.02;;;18.70;24.91
73518;BME280;61766;60.318;25.044;2022-09-09T10:32:17;102469.79;;;18.96;25.45
73518;BME280;61766;60.318;25.044;2022-09-09T10:34:46;102470.08;;;19.03;24.87
73518;BME280;61766;60.318;25.044;2022-09-09T10:36:57;102474.56;;;18.81;25.02
73518;BME280;61766;60.318;25.044;2022-09-09T10:39:33;102472.62;;;19.14;24.92
73518;BME280;61766;60.318;25.044;2022-09-09T10:41:55;102471.61;;;19.22;24.64
73518;BME280;61766;60.318;25.044;2022-09-09T10:44:25;102476.01;;;18.90;25.20
73518;BME280;61766;60.318;25.044;2022-09-09T10:46:48;102472.21;;;17.93;25.58
73518;BME280;61766;60.318;25.044;2022-09-09T10:49:15;102469.44;;;18.22;25.23
73518;BME280;61766;60.318;25.044;2022-09-09T10:51:36;102468.58;;;18.33;25.27
73518;BME280;61766;60.318;25.044;2022-09-09T10:54:11;102465.76;;;18.81;26.57
73518;BME280;61766;60.318;25.044;2022-09-09T10:56:25;102464.85;;;19.49;23.79
73518;BME280;61766;60.318;25.044;2022-09-09T10:58:52;102466.31;;;19.53;23.43
73518;BME280;61766;60.318;25.044;2022-09-09T11:01:20;102469.73;;;20.13;23.16
73518;BME280;61766;60.318;25.044;2022-09-09T11:03:42;102465.83;;;19.73;23.01
73518;BME280;61766;60.318;25.044;2022-09-09T11:06:10;102469.76;;;19.86;22.22
73518;BME280;61766;60.318;25.044;2022-09-09T11:08:34;102471.85;;;19.77;22.64
73518;BME280;61766;60.318;25.044;2022-09-09T11:11:02;102459.41;;;20.27;22.56
73518;BME280;61766;60.318;25.044;2022-09-09T11:13:30;102464.42;;;20.24;21.95
73518;BME280;61766;60.318;25.044;2022-09-09T11:15:54;102457.80;;;20.11;22.46
73518;BME280;61766;60.318;25.044;2022-09-09T11:18:20;102459.76;;;19.54;23.00
73518;BME280;61766;60.318;25.044;2022-09-09T11:20:41;102453.15;;;20.18;22.94
73518;BME280;61766;60.318;25.044;2022-09-09T11:23:11;102446.28;;;20.97;21.72
73518;BME280;61766;60.318;25.044;2022-09-09T11:25:36;102451.60;;;20.27;22.34
73518;BME280;61766;60.318;25.044;2022-09-09T11:28:19;102442.31;;;20.20;22.62
73518;BME280;61766;60.318;25.044;2022-09-09T11:30:26;102445.45;;;21.04;21.85
73518;BME280;61766;60.318;25.044;2022-09-09T11:33:01;102444.29;;;20.44;22.21
73518;BME280;61766;60.318;25.044;2022-09-09T11:35:29;102442.60;;;19.81;22.24
73518;BME280;61766;60.318;25.044;2022-09-09T11:37:53;102441.58;;;20.39;21.78
73518;BME280;61766;60.318;25.044;2022-09-09T11:40:08;102443.77;;;18.03;23.74
73518;BME280;61766;60.318;25.044;2022-09-09T11:42:27;102442.43;;;20.08;22.87
73518;BME280;61766;60.318;25.044;2022-09-09T11:44:53;102436.07;;;20.63;22.27
73518;BME280;61766;60.318;25.044;2022-09-09T11:47:22;102435.82;;;20.36;22.50
73518;BME280;61766;60.318;25.044;2022-09-09T11:49:44;102430.76;;;20.54;21.98
73518;BME280;61766;60.318;25.044;2022-09-09T11:52:20;102432.17;;;21.02;21.70
73518;BME280;61766;60.318;25.044;2022-09-09T11:54:45;102431.61;;;20.66;21.17
73518;BME280;61766;60.318;25.044;2022-09-09T11:57:02;102437.13;;;19.92;22.26
73518;BME280;61766;60.318;25.044;2022-09-09T11:59:29;102431.16;;;20.29;21.83
73518;BME280;61766;60.318;25.044;2022-09-09T12:01:56;102430.80;;;21.22;21.12
73518;BME280;61766;60.318;25.044;2022-09-09T12:04:29;102428.78;;;21.03;20.60
73518;BME280;61766;60.318;25.044;2022-09-09T12:06:46;102423.20;;;21.00;20.23
73518;BME280;61766;60.318;25.044;2022-09-09T12:09:18;102424.30;;;21.09;20.58
73518;BME280;61766;60.318;25.044;2022-09-09T12:11:36;102419.05;;;21.56;20.41
73518;BME280;61766;60.318;25.044;2022-09-09T12:14:01;102412.13;;;21.72;19.87
73518;BME280;61766;60.318;25.044;2022-09-09T12:16:30;102411.57;;;21.64;20.07
73518;BME280;61766;60.318;25.044;2022-09-09T12:21:25;102404.70;;;20.88;20.46
73518;BME280;61766;60.318;25.044;2022-09-09T12:23:48;102401.35;;;20.88;20.05
73518;BME280;61766;60.318;25.044;2022-09-09T12:26:22;102399.29;;;20.98;19.96
73518;BME280;61766;60.318;25.044;2022-09-09T12:28:49;102398.55;;;21.57;19.90
73518;BME280;61766;60.318;25.044;2022-09-09T12:31:06;102394.21;;;20.25;20.76
73518;BME280;61766;60.318;25.044;2022-09-09T12:33:34;102394.03;;;21.00;20.51
73518;BME280;61766;60.318;25.044;2022-09-09T12:35:55;102390.62;;;21.19;20.47
73518;BME280;61766;60.318;25.044;2022-09-09T12:38:24;102391.97;;;21.19;20.24
73518;BME280;61766;60.318;25.044;2022-09-09T12:40:54;102394.07;;;21.30;19.96
73518;BME280;61766;60.318;25.044;2022-09-09T12:43:16;102385.91;;;20.55;20.28
73518;BME280;61766;60.318;25.044;2022-09-09T12:45:40;102387.91;;;20.85;20.60
73518;BME280;61766;60.318;25.044;2022-09-09T12:48:04;102383.43;;;20.41;20.27